Barrow, AK

6:08 AM AKST on March 03, 2015 (GMT -0900)
Nuiqsut | Change Station
CLOSE
Current Station
Airport
Location: Nuiqsut,
Elevation: 39 ft
Nearby Weather Stations
Active Advisory: Blizzard Warning

Elev 39 ft 70.21 °N, 150.99 °W | Updated 15 minutes ago

Partly Cloudy
Partly Cloudy
0 °F
Feels Like -17 °F
N
12
Wind Variable Wind from East

Today
High -- | Low -- °F
--% Chance of Precip.
Yesterday
High -- | Low -- °F
Precip. -- in
8:22 AM 6:11 PM
Waxing Gibbous, 96% visible
Pressure 29.72 in
Visibility 10.0 miles
Clouds Few 11000 ft
Windchill -17 °F
Dew Point -5 °F
Humidity 79%
Rainfall 0.00 in
Snow Depth Not available.
UV 0 out of 12
Pollen Not available.
Air Quality Not available.
Flu Activity Not available.
METAR PAQT 031453Z AUTO 10010KT 10SM FEW110 M18/M21 A2972 RMK SLP064 T11781206 56028 TSNO VIA AUTODIAL

More Conditions Fewer Conditions

Pressure 29.72 in
Visibility 10.0 miles
Clouds Few 11000 ft
Windchill -17 °F
Dew Point -5 °F
Humidity 79%
Rainfall 0.00 in
Snow Depth Not available.
UV 0 out of 12
Pollen Not available.
Air Quality Not available.
Flu Activity Not available.
METAR PAQT 031453Z AUTO 10010KT 10SM FEW110 M18/M21 A2972 RMK SLP064 T11781206 56028 TSNO VIA AUTODIAL

More Conditions Fewer Conditions

10-Day Weather Forecast

Almanac

Astronomy

Mar. 03, 2015 Rise Set
Actual Time
Civil Twilight
Nautical Twilight
Astronomical Twilight
Moon
Length of Visible Light
Length of Day
Tomorrow will be .
, % of the Moon is Illuminated

Today's Extremes

State Highs State Lows

Community

WunderPhotos

Upload Photos

1,802,133 photos uploaded!

WunderBlogs® & News

Nearby

Air Quality

  Air Quality AQ Index Pollutant
Not available.

Snow Depth

Station Depth Elevation

Earthquake Activity

City Distance Mag. Time & Date
Minimum magnitude displayed is 2.5.

Coastal Water Temperatures

Place Temperature

Nearby Weather Stations

Blizzard Warning
Statement as of 3:51 AM AKST on March 03, 2015

... Blizzard Warning in effect from 9 PM this evening to 6 PM akst
Wednesday...

The National Weather Service in Fairbanks has issued a Blizzard
Warning... which is in effect from 9 PM this evening to 6 PM akst
Wednesday.

* Visibility... snow and blowing snow reducing visibility to one
quarter mile or less at times.

* Winds... west 25 to 35 mph with gusts to 45 mph.

* Snow... about 1 inch accumulation.

* Timing... blizzard conditions are expected to develop around
9 PM this evening and continue through Wednesday.

* Impacts... visibility will be very poor and snow will accumulate
into drifts. Whiteout conditions should be expected. Travel and
outdoor activities will be extremely difficult.

Precautionary/preparedness actions...

A Blizzard Warning means severe winter weather conditions in
blowing snow with strong winds and very poor visibilities are
occurring or expected.